^^
Saratoga-Weather Station Historical Data
Daily Summary for June 28, 2020 Units:  English    Metric   Both
Daily Weekly Monthly Yearly Custom
  High: Low: Average:
Temperature: 39.9 °F 31.6 °F 36.9 °F
Dew Point: 37.9 °F 30.4 °F 35.1 °F
Humidity: 96% 87% 93%
Wind Speed: 10.1mph 0mph 1.4mph
Wind Gust: 17mph - -
Wind- - South
Pressure: 28.9 in 28.8 in -
Precipitation: 0.18 in    
Historical Graphs
 
 
Tabular Data for June 28, 2020
Time Temperature Dew Point Pressure Wind Wind Speed Wind Gust Humidity Rainfall Rate (Hourly) solar
00:00 39.4 °F 36.5 °F 28.9 in NE 6 mph 10 mph 89% 0 in 0 W/m2
00:05 39.4 °F 36.5 °F 28.9 in NE 4 mph 10 mph 89% 0 in 0 W/m2
00:10 39.4 °F 36.5 °F 28.9 in NW 6 mph 8 mph 89% 0 in 0 W/m2
00:15 39.6 °F 36.5 °F 28.9 in West 6 mph 6 mph 89% 0 in 0 W/m2
00:20 39.6 °F 36.5 °F 28.9 in NE 4.9 mph 5 mph 89% 0 in 0 W/m2
00:25 39.4 °F 36.5 °F 28.9 in NNE 2 mph 4 mph 89% 0 in 0 W/m2
00:30 39.4 °F 36.5 °F 28.9 in NNW 4 mph 5 mph 89% 0 in 0 W/m2
00:35 39.2 °F 36.5 °F 28.9 in NW 2 mph 9 mph 90% 0.01 in 0 W/m2
00:40 39 °F 36.3 °F 28.9 in North 8.1 mph 11 mph 90% 0.01 in 0 W/m2
00:45 39 °F 36.3 °F 28.9 in NW 0.9 mph 11 mph 90% 0.01 in 0 W/m2
00:50 38.8 °F 36.5 °F 28.9 in WNW 2 mph 10 mph 91% 0.01 in 0 W/m2
00:55 38.8 °F 36.5 °F 28.9 in WNW 0.9 mph 9 mph 91% 0.01 in 0 W/m2
01:00 38.8 °F 36.5 °F 28.9 in NNE 4 mph 17 mph 91% 0.01 in 0 W/m2
01:05 38.8 °F 36.5 °F 28.9 in WNW 6.9 mph 17 mph 91% 0.01 in 0 W/m2
01:10 38.8 °F 36.5 °F 28.9 in NNW 8.1 mph 8 mph 91% 0.01 in 0 W/m2
01:15 38.8 °F 36.5 °F 28.9 in NNW 4 mph 17 mph 91% 0.01 in 0 W/m2
01:20 38.7 °F 36.3 °F 28.9 in WNW 4 mph 7 mph 91% 0.01 in 0 W/m2
01:25 38.7 °F 36.3 °F 28.9 in NNW 0.9 mph 6 mph 91% 0.01 in 0 W/m2
01:30 38.7 °F 36.3 °F 28.9 in NE 0.9 mph 5 mph 91% 0 in 0 W/m2
01:35 38.7 °F 36.3 °F 28.9 in NNW 4 mph 15 mph 91% 0 in 0 W/m2
01:40 38.7 °F 36.3 °F 28.9 in NNW 0.9 mph 9 mph 91% 0 in 0 W/m2
01:45 38.7 °F 36.3 °F 28.9 in WNW 2.9 mph 15 mph 91% 0 in 0 W/m2
01:50 38.7 °F 36.3 °F 28.9 in NE 4 mph 10 mph 91% 0 in 0 W/m2
01:55 38.7 °F 36.3 °F 28.9 in NW 2 mph 6 mph 91% 0 in 0 W/m2
02:00 38.7 °F 36.3 °F 28.9 in West 6.9 mph 15 mph 91% 0 in 0 W/m2
02:05 38.7 °F 36.3 °F 28.9 in NW 0.9 mph 9 mph 91% 0 in 0 W/m2
02:10 38.7 °F 36.3 °F 28.9 in WNW 10.1 mph 15 mph 91% 0 in 0 W/m2
02:15 38.7 °F 36.3 °F 28.9 in East 4 mph 5 mph 91% 0 in 0 W/m2
02:20 38.7 °F 36.3 °F 28.9 in NNE 2 mph 14 mph 91% 0 in 0 W/m2
02:25 38.7 °F 36.3 °F 28.9 in NE 0.9 mph 5 mph 91% 0 in 0 W/m2
02:30 38.7 °F 36.3 °F 28.9 in Calm   5 mph 91% 0 in 0 W/m2
02:35 38.7 °F 36.3 °F 28.9 in WSW 0.9 mph 2 mph 91% 0 in 0 W/m2
02:40 38.7 °F 36.3 °F 28.9 in ESE 6.9 mph 7 mph 91% 0 in 0 W/m2
02:45 38.7 °F 36.3 °F 28.9 in West 0.9 mph 5 mph 91% 0 in 0 W/m2
02:50 38.7 °F 36.3 °F 28.9 in West 2 mph 6 mph 91% 0 in 0 W/m2
02:55 38.7 °F 36.3 °F 28.9 in NW 2.9 mph 4 mph 91% 0 in 0 W/m2
03:00 38.7 °F 36.3 °F 28.9 in NNW 2 mph 3 mph 91% 0 in 0 W/m2
03:05 38.7 °F 36.3 °F 28.9 in NW 4.9 mph 5 mph 91% 0 in 0 W/m2
03:10 38.7 °F 36.3 °F 28.9 in WNW 0.9 mph 9 mph 91% 0 in 0 W/m2
03:15 38.8 °F 36.5 °F 28.9 in NW 2 mph 5 mph 91% 0 in 0 W/m2
03:20 38.8 °F 36.5 °F 28.9 in NW 2 mph 9 mph 91% 0 in 0 W/m2
03:25 38.8 °F 36.5 °F 28.9 in North 4 mph 8 mph 91% 0 in 0 W/m2
03:30 38.8 °F 36.5 °F 28.9 in NW 2.9 mph 6 mph 91% 0 in 0 W/m2
03:35 38.8 °F 36.5 °F 28.9 in Calm   6 mph 91% 0 in 0 W/m2
03:40 38.8 °F 36.5 °F 28.9 in WNW 2.9 mph 8 mph 91% 0 in 0 W/m2
03:45 38.8 °F 36.7 °F 28.9 in NNW 4 mph 5 mph 92% 0 in 0 W/m2
03:50 38.8 °F 36.5 °F 28.9 in North 0.9 mph 6 mph 91% 0 in 0 W/m2
03:55 38.8 °F 36.5 °F 28.9 in North 0.9 mph 4 mph 91% 0 in 0 W/m2
04:00 38.7 °F 36.3 °F 28.9 in WSW 2.9 mph 8 mph 91% 0 in 0 W/m2
04:05 38.7 °F 36.3 °F 28.9 in SW 2.9 mph 6 mph 91% 0 in 0 W/m2
04:10 38.7 °F 36.5 °F 28.9 in NNE 2.9 mph 8 mph 92% 0 in 0 W/m2
04:15 38.7 °F 36.5 °F 28.9 in WNW 6.9 mph 7 mph 92% 0 in 0 W/m2
04:20 38.7 °F 36.3 °F 28.9 in WSW 0.9 mph 3 mph 91% 0 in 0 W/m2
04:25 38.7 °F 36.3 °F 28.9 in WNW 2.9 mph 3 mph 91% 0 in 0 W/m2
04:30 38.7 °F 36.5 °F 28.9 in NW 2 mph 4 mph 92% 0 in 0 W/m2
04:35 38.7 °F 36.3 °F 28.9 in NE 2 mph 3 mph 91% 0 in 0 W/m2
04:40 38.5 °F 36.1 °F 28.9 in WNW 2.9 mph 8 mph 91% 0 in 0 W/m2
04:45 38.3 °F 36 °F 28.9 in NW 2.9 mph 4 mph 91% 0 in 0 W/m2
04:50 38.3 °F 36.1 °F 28.9 in East 2 mph 8 mph 92% 0 in 0 W/m2
04:55 38.3 °F 36.1 °F 28.9 in WNW 2 mph 3 mph 92% 0 in 0 W/m2
05:00 38.3 °F 36.1 °F 28.9 in WNW 0.9 mph 3 mph 92% 0 in 0 W/m2
05:05 38.1 °F 35.8 °F 28.9 in NNW 0.9 mph 4 mph 91% 0 in 0 W/m2
05:11 37.9 °F 35.8 °F 28.9 in NNW 2 mph 3 mph 92% 0 in 0 W/m2
05:16 37.9 °F 35.8 °F 28.9 in ENE 2 mph 4 mph 92% 0 in 0 W/m2
05:21 37.9 °F 35.8 °F 28.9 in ENE 0.9 mph 4 mph 92% 0 in 0 W/m2
05:26 37.8 °F 35.6 °F 28.9 in East 0.9 mph 3 mph 92% 0 in 0 W/m2
05:31 37.6 °F 35.4 °F 28.9 in East 0.9 mph 2 mph 92% 0 in 0 W/m2
05:36 37 °F 34.7 °F 28.9 in Calm   1 mph 91% 0 in 0 W/m2
05:41 36.7 °F 34.3 °F 28.9 in Calm     91% 0 in 0 W/m2
05:46 36.3 °F 34.2 °F 28.9 in East 0.9 mph 2 mph 92% 0 in 0 W/m2
05:51 36.1 °F 34.3 °F 28.9 in Calm     93% 0 in 0 W/m2
05:56 36.1 °F 34.3 °F 28.9 in Calm   2 mph 93% 0 in 0 W/m2
06:01 36.3 °F 34.7 °F 28.9 in Calm     94% 0 in 0 W/m2
06:06 36.3 °F 34.7 °F 28.9 in NNE 0.9 mph 2 mph 94% 0 in 0 W/m2
06:11 36.7 °F 35.1 °F 28.9 in Calm   3 mph 94% 0 in 0 W/m2
06:16 36.9 °F 35.2 °F 28.9 in NE 2 mph 5 mph 94% 0 in 0 W/m2
06:21 36.9 °F 35.2 °F 28.9 in Calm   2 mph 94% 0 in 0 W/m2
06:26 36.9 °F 35.2 °F 28.9 in Calm   5 mph 94% 0 in 0 W/m2
06:31 36.7 °F 35.1 °F 28.9 in Calm     94% 0 in 0 W/m2
06:36 36.7 °F 35.1 °F 28.9 in Calm     94% 0 in 0 W/m2
06:41 36.3 °F 34.7 °F 28.9 in Calm     94% 0 in 0 W/m2
06:46 36.1 °F 34.5 °F 28.9 in Calm   3 mph 94% 0 in 0 W/m2
06:51 36.1 °F 34.5 °F 28.9 in Calm     94% 0 in 0 W/m2
06:56 36.1 °F 34.9 °F 28.9 in Calm   6 mph 95% 0 in 0 W/m2
07:01 36.1 °F 34.9 °F 28.9 in NE 2.9 mph 4 mph 95% 0 in 0 W/m2
07:06 36.3 °F 35.1 °F 28.9 in North 0.9 mph 4 mph 95% 0 in 0 W/m2
07:11 36.1 °F 34.9 °F 28.9 in NE 0.9 mph 5 mph 95% 0 in 0 W/m2
07:16 36.1 °F 34.9 °F 28.9 in NE 2 mph 2 mph 95% 0 in 0 W/m2
07:21 36.1 °F 34.9 °F 28.9 in NNE 0.9 mph 2 mph 95% 0 in 0 W/m2
07:26 36 °F 34.3 °F 28.9 in Calm   1 mph 94% 0 in 0 W/m2
07:31 35.8 °F 34.2 °F 28.9 in Calm     94% 0 in 0 W/m2
07:36 35.2 °F 33.6 °F 28.9 in Calm     94% 0 in 0 W/m2
07:41 35.2 °F 33.6 °F 28.9 in Calm   1 mph 94% 0 in 0 W/m2
07:46 35.1 °F 33.4 °F 28.9 in Calm     94% 0 in 0 W/m2
07:51 35.1 °F 33.8 °F 28.9 in Calm     95% 0 in 0 W/m2
07:56 35.1 °F 33.8 °F 28.9 in Calm     95% 0 in 0 W/m2
08:01 35.1 °F 33.8 °F 28.9 in West 0.9 mph 3 mph 95% 0 in 0 W/m2
08:06 35.1 °F 33.8 °F 28.9 in West 0.9 mph 2 mph 95% 0 in 0 W/m2
08:11 35.2 °F 34 °F 28.9 in NW 0.9 mph 3 mph 95% 0 in 0 W/m2
08:16 35.2 °F 34 °F 28.9 in Calm   1 mph 95% 0 in 0 W/m2
08:21 35.4 °F 34.3 °F 28.9 in South 2 mph 2 mph 96% 0 in 0 W/m2
08:26 35.6 °F 34.5 °F 28.9 in Calm     96% 0 in 0 W/m2
08:31 35.6 °F 34.3 °F 28.9 in Calm     95% 0 in 0 W/m2
08:36 35.8 °F 34.7 °F 28.9 in South 0.9 mph 2 mph 96% 0 in 0 W/m2
08:41 35.8 °F 34.7 °F 28.9 in Calm   1 mph 96% 0 in 0 W/m2
08:46 36 °F 34.9 °F 28.9 in Calm   1 mph 96% 0 in 0 W/m2
08:51 36 °F 34.9 °F 28.9 in Calm   1 mph 96% 0 in 5 W/m2
08:56 35.8 °F 34.7 °F 28.9 in Calm     96% 0 in 9 W/m2
09:01 35.8 °F 34.7 °F 28.9 in Calm     96% 0 in 7 W/m2
09:06 35.8 °F 34.7 °F 28.9 in South 0.9 mph 1 mph 96% 0 in 9 W/m2
09:11 35.8 °F 34.7 °F 28.9 in Calm     96% 0 in 12 W/m2
09:16 35.8 °F 34.7 °F 28.9 in Calm     96% 0 in 16 W/m2
09:21 35.8 °F 34.7 °F 28.9 in Calm     96% 0 in 18 W/m2
09:26 35.8 °F 34.7 °F 28.9 in Calm     96% 0 in 28 W/m2
09:31 36 °F 34.9 °F 28.9 in NE 2.9 mph 3 mph 96% 0 in 35 W/m2
09:36 36.3 °F 35.2 °F 28.9 in ENE 0.9 mph 3 mph 96% 0 in 49 W/m2
09:41 36.7 °F 35.6 °F 28.9 in ENE 2.9 mph 4 mph 96% 0 in 32 W/m2
09:46 36.9 °F 35.8 °F 28.9 in Calm   2 mph 96% 0.01 in 44 W/m2
09:51 36.9 °F 35.8 °F 28.9 in Calm   4 mph 96% 0.01 in 49 W/m2
09:56 37 °F 36 °F 28.9 in NNW 2 mph 2 mph 96% 0.01 in 47 W/m2
10:01 37.2 °F 36.1 °F 28.9 in NNE 2 mph 2 mph 96% 0.01 in 40 W/m2
10:06 37.6 °F 36.5 °F 28.9 in North 0.9 mph 2 mph 96% 0.02 in 39 W/m2
10:11 37.6 °F 36.5 °F 28.9 in Calm   2 mph 96% 0.02 in 28 W/m2
10:16 37.8 °F 36.7 °F 28.9 in NE 0.9 mph 3 mph 96% 0.02 in 19 W/m2
10:21 37.9 °F 36.9 °F 28.9 in Calm   3 mph 96% 0.02 in 14 W/m2
10:26 38.1 °F 37 °F 28.9 in NE 0.9 mph 4 mph 96% 0.02 in 12 W/m2
10:31 38.1 °F 37 °F 28.9 in NE 2 mph 2 mph 96% 0.03 in 12 W/m2
10:36 38.1 °F 37 °F 28.9 in Calm   2 mph 96% 0.04 in 16 W/m2
10:41 37.9 °F 36.9 °F 28.9 in North 0.9 mph 2 mph 96% 0.05 in 23 W/m2
10:46 37.8 °F 36.7 °F 28.9 in Calm   4 mph 96% 0.05 in 39 W/m2
10:52 37.8 °F 36.7 °F 28.9 in North 0.9 mph 3 mph 96% 0.05 in 46 W/m2
10:57 37.8 °F 36.7 °F 28.9 in NE 0.9 mph 3 mph 96% 0.05 in 63 W/m2
11:02 37.8 °F 36.5 °F 28.9 in North 0.9 mph 2 mph 95% 0.05 in 65 W/m2
11:07 37.8 °F 36.5 °F 28.9 in Calm     95% 0.04 in 67 W/m2
11:12 37.9 °F 36.7 °F 28.9 in NE 0.9 mph 1 mph 95% 0.05 in 49 W/m2
11:17 37.9 °F 36.7 °F 28.9 in Calm   4 mph 95% 0.05 in 54 W/m2
11:22 38.1 °F 36.9 °F 28.9 in East 0.9 mph 4 mph 95% 0.05 in 42 W/m2
11:27 38.1 °F 36.9 °F 28.9 in East 0.9 mph 2 mph 95% 0.04 in 51 W/m2
11:32 38.3 °F 37 °F 28.9 in ENE 2 mph 4 mph 95% 0.03 in 49 W/m2
11:37 38.5 °F 37.2 °F 28.9 in ENE 0.9 mph 3 mph 95% 0.02 in 40 W/m2
11:42 38.5 °F 37.2 °F 28.9 in East 2 mph 3 mph 95% 0.02 in 39 W/m2
11:47 38.5 °F 37.2 °F 28.9 in ENE 2 mph 3 mph 95% 0.01 in 40 W/m2
11:52 38.7 °F 37.4 °F 28.9 in East 0.9 mph 3 mph 95% 0.01 in 39 W/m2
11:57 38.7 °F 37.4 °F 28.9 in East 0.9 mph 1 mph 95% 0.02 in 42 W/m2
12:02 38.7 °F 37.4 °F 28.9 in East 2 mph 3 mph 95% 0.02 in 44 W/m2
12:07 38.8 °F 37.6 °F 28.9 in NNW 2 mph 3 mph 95% 0.02 in 51 W/m2
12:12 38.8 °F 37.6 °F 28.9 in NW 2 mph 3 mph 95% 0.02 in 46 W/m2
12:17 39 °F 37.8 °F 28.9 in NNE 0.9 mph 3 mph 95% 0.02 in 39 W/m2
12:22 39 °F 37.8 °F 28.9 in North 2 mph 3 mph 95% 0.02 in 42 W/m2
12:27 39.2 °F 37.9 °F 28.9 in SW 2.9 mph 4 mph 95% 0.02 in 39 W/m2
12:32 39.2 °F 37.6 °F 28.9 in ENE 4.9 mph 11 mph 94% 0.03 in 65 W/m2
12:37 39.4 °F 37.8 °F 28.9 in NW 2.9 mph 7 mph 94% 0.03 in 86 W/m2
12:42 39.4 °F 37.8 °F 28.9 in NNW 2.9 mph 11 mph 94% 0.03 in 91 W/m2
12:47 39.4 °F 37.6 °F 28.9 in West 4 mph 10 mph 93% 0.03 in 95 W/m2
12:52 39.6 °F 37.8 °F 28.9 in West 2.9 mph 4 mph 93% 0.03 in 91 W/m2
12:57 39.6 °F 37.8 °F 28.9 in North 0.9 mph 10 mph 93% 0.03 in 107 W/m2
13:02 39.6 °F 37.8 °F 28.9 in WNW 4 mph 5 mph 93% 0.03 in 86 W/m2
13:07 39.6 °F 37.4 °F 28.9 in NNW 2 mph 5 mph 92% 0.03 in 74 W/m2
13:12 39.6 °F 37.4 °F 28.9 in SSW 2.9 mph 11 mph 92% 0.02 in 90 W/m2
13:17 39.7 °F 37.6 °F 28.9 in NNE 0.9 mph 4 mph 92% 0.02 in 141 W/m2
13:22 39.7 °F 37.6 °F 28.9 in West 0.9 mph 9 mph 92% 0.02 in 158 W/m2
13:27 39.7 °F 37.6 °F 28.9 in WNW 0.9 mph 11 mph 92% 0.02 in 116 W/m2
13:32 39.7 °F 37.6 °F 28.9 in WSW 0.9 mph 10 mph 92% 0.01 in 70 W/m2
13:37 39.7 °F 37.4 °F 28.9 in NW 2 mph 11 mph 91% 0.01 in 53 W/m2
13:42 39.7 °F 37.4 °F 28.9 in NW 2 mph 3 mph 91% 0.01 in 165 W/m2
13:47 39.7 °F 37.4 °F 28.9 in NNW 0.9 mph 3 mph 91% 0.01 in 123 W/m2
13:52 39.7 °F 37.4 °F 28.9 in NW 2.9 mph 7 mph 91% 0.01 in 114 W/m2
13:57 39.7 °F 37.4 °F 28.9 in Calm   3 mph 91% 0 in 90 W/m2
14:02 39.7 °F 37.4 °F 28.9 in NW 2 mph 7 mph 91% 0 in 121 W/m2
14:07 39.9 °F 37.6 °F 28.9 in ENE 0.9 mph 2 mph 91% 0 in 123 W/m2
14:12 39.9 °F 37.6 °F 28.9 in Calm   4 mph 91% 0 in 74 W/m2
14:17 39.9 °F 37.6 °F 28.9 in North 0.9 mph 15 mph 91% 0 in 76 W/m2
14:22 39.9 °F 37.2 °F 28.9 in NNW 2 mph 3 mph 90% 0 in 56 W/m2
14:27 39.9 °F 37.2 °F 28.9 in West 2 mph 14 mph 90% 0 in 77 W/m2
14:32 39.9 °F 36.9 °F 28.9 in WNW 4.9 mph 5 mph 89% 0 in 90 W/m2
14:37 39.9 °F 36.9 °F 28.9 in WSW 0.9 mph 4 mph 89% 0 in 63 W/m2
14:42 39.9 °F 36.9 °F 28.9 in SW 4 mph 10 mph 89% 0 in 47 W/m2
14:47 39.7 °F 36.7 °F 28.9 in NNW 2 mph 3 mph 89% 0 in 42 W/m2
14:53 39.7 °F 36.7 °F 28.9 in NW 0.9 mph 10 mph 89% 0 in 35 W/m2
14:58 39.9 °F 36.9 °F 28.9 in NW 0.9 mph 2 mph 89% 0 in 32 W/m2
15:03 39.9 °F 36.9 °F 28.9 in Calm   1 mph 89% 0 in 88 W/m2
15:08 39.9 °F 36.9 °F 28.9 in NNW 4 mph 4 mph 89% 0 in 32 W/m2
15:13 39.9 °F 36.7 °F 28.9 in NNE 0.9 mph 8 mph 88% 0 in 33 W/m2
15:18 39.9 °F 36.7 °F 28.9 in Calm   1 mph 88% 0 in 30 W/m2
15:23 39.9 °F 36.7 °F 28.9 in NNW 0.9 mph 3 mph 88% 0 in 25 W/m2
15:28 39.9 °F 36.7 °F 28.9 in West 6 mph 9 mph 88% 0 in 16 W/m2
15:33 39.7 °F 36.5 °F 28.9 in NW 2.9 mph 6 mph 88% 0 in 14 W/m2
15:38 39.7 °F 36.5 °F 28.9 in NW 4.9 mph 10 mph 88% 0 in 32 W/m2
15:43 39.7 °F 36.1 °F 28.9 in NW 2.9 mph 9 mph 87% 0 in 19 W/m2
15:48 39.6 °F 36 °F 28.9 in NNE 0.9 mph 4 mph 87% 0 in 16 W/m2
15:53 39.4 °F 36.1 °F 28.9 in NNE 0.9 mph 3 mph 88% 0 in 12 W/m2
15:58 39.2 °F 36 °F 28.9 in Calm   3 mph 88% 0 in 16 W/m2
16:03 39 °F 35.8 °F 28.9 in NE 2 mph 6 mph 88% 0 in 18 W/m2
16:08 39 °F 35.8 °F 28.9 in WNW 6.9 mph 8 mph 88% 0 in 11 W/m2
16:13 38.8 °F 35.6 °F 28.9 in NNW 0.9 mph 7 mph 88% 0 in 11 W/m2
16:18 38.8 °F 35.6 °F 28.9 in NW 2 mph 4 mph 88% 0 in 9 W/m2
16:23 38.7 °F 35.4 °F 28.9 in SW 0.9 mph 7 mph 88% 0 in 7 W/m2
16:28 38.5 °F 35.2 °F 28.9 in East 0.9 mph 2 mph 88% 0 in 5 W/m2
16:33 38.3 °F 35.1 °F 28.9 in North 0.9 mph 2 mph 88% 0 in 5 W/m2
16:38 38.1 °F 34.9 °F 28.9 in Calm   2 mph 88% 0 in 0 W/m2
16:43 38.1 °F 35.2 °F 28.9 in NNE 2 mph 5 mph 89% 0 in 0 W/m2
16:48 37.9 °F 35.1 °F 28.9 in ENE 2 mph 3 mph 89% 0 in 0 W/m2
16:53 37.9 °F 35.1 °F 28.9 in North 2 mph 3 mph 89% 0 in 0 W/m2
16:58 37.9 °F 35.1 °F 28.9 in ENE 0.9 mph 2 mph 89% 0 in 0 W/m2
17:03 37.9 °F 35.1 °F 28.9 in Calm   2 mph 89% 0 in 0 W/m2
17:08 37.9 °F 35.1 °F 28.9 in Calm   2 mph 89% 0 in 0 W/m2
17:13 37.8 °F 34.9 °F 28.9 in North 0.9 mph 1 mph 89% 0 in 0 W/m2
17:18 37.6 °F 34.7 °F 28.9 in North 0.9 mph 2 mph 89% 0 in 0 W/m2
17:23 37.2 °F 34.5 °F 28.9 in Calm   1 mph 90% 0 in 0 W/m2
17:28 36.9 °F 34.2 °F 28.9 in Calm     90% 0 in 0 W/m2
17:33 36.3 °F 33.6 °F 28.9 in Calm     90% 0 in 0 W/m2
17:38 36 °F 33.3 °F 28.9 in Calm     90% 0 in 0 W/m2
17:43 35.6 °F 33.3 °F 28.9 in Calm     91% 0 in 0 W/m2
17:48 35.2 °F 32.9 °F 28.9 in Calm     91% 0 in 0 W/m2
17:53 34.9 °F 32.7 °F 28.9 in Calm     92% 0 in 0 W/m2
17:58 34.5 °F 32.4 °F 28.9 in Calm     92% 0 in 0 W/m2
18:03 34.3 °F 32.2 °F 28.9 in Calm     92% 0 in 0 W/m2
18:08 34.2 °F 32.4 °F 28.9 in Calm   2 mph 93% 0 in 0 W/m2
18:13 34 °F 32.2 °F 28.9 in North 0.9 mph 2 mph 93% 0 in 0 W/m2
18:18 33.8 °F 32 °F 28.9 in Calm     93% 0 in 0 W/m2
18:23 33.6 °F 31.8 °F 28.9 in Calm   1 mph 93% 0 in 0 W/m2
18:28 33.6 °F 32 °F 28.9 in Calm   1 mph 94% 0 in 0 W/m2
18:33 33.4 °F 31.8 °F 28.9 in Calm   1 mph 94% 0 in 0 W/m2
18:38 33.3 °F 31.6 °F 28.9 in Calm     94% 0 in 0 W/m2
18:43 33.1 °F 31.5 °F 28.9 in Calm     94% 0 in 0 W/m2
18:48 32.9 °F 31.3 °F 28.9 in Calm     94% 0 in 0 W/m2
18:53 32.7 °F 31.1 °F 28.9 in Calm     94% 0 in 0 W/m2
18:58 32.4 °F 30.7 °F 28.9 in Calm     94% 0 in 0 W/m2
19:03 32.4 °F 30.7 °F 28.9 in Calm   1 mph 94% 0 in 0 W/m2
19:08 32.2 °F 30.6 °F 28.9 in Calm     94% 0 in 0 W/m2
19:13 32 °F 30.6 °F 28.9 in Calm     94% 0 in 0 W/m2
19:18 32 °F 30.7 °F 28.9 in Calm     95% 0 in 0 W/m2
19:23 31.8 °F 30.6 °F 28.9 in Calm     95% 0 in 0 W/m2
19:28 31.6 °F 30.4 °F 28.9 in Calm     95% 0 in 0 W/m2
19:33 31.6 °F 30.4 °F 28.9 in Calm     95% 0 in 0 W/m2
19:38 31.6 °F 30.4 °F 28.9 in Calm     95% 0 in 0 W/m2
19:43 31.6 °F 30.4 °F 28.9 in Calm   2 mph 95% 0 in 0 W/m2
19:48 31.6 °F 30.4 °F 28.9 in Calm     95% 0 in 0 W/m2
19:53 31.8 °F 30.7 °F 28.9 in Calm   1 mph 96% 0 in 0 W/m2
19:58 32.2 °F 31.1 °F 28.9 in Calm     96% 0 in 0 W/m2
20:03 32.4 °F 31.3 °F 28.9 in West 0.9 mph 1 mph 96% 0 in 0 W/m2
20:08 32.9 °F 31.8 °F 28.9 in ENE 2 mph 2 mph 96% 0 in 0 W/m2
20:13 33.4 °F 32.4 °F 28.9 in ENE 2 mph 2 mph 96% 0 in 0 W/m2
20:18 33.8 °F 32.7 °F 28.9 in NE 2.9 mph 4 mph 96% 0 in 0 W/m2
20:23 34 °F 32.9 °F 28.9 in NNE 4 mph 4 mph 96% 0 in 0 W/m2
20:28 34.2 °F 33.1 °F 28.9 in ENE 6 mph 6 mph 96% 0 in 0 W/m2
20:33 34.3 °F 33.3 °F 28.9 in East 2 mph 6 mph 96% 0 in 0 W/m2
20:38 34.5 °F 33.4 °F 28.9 in East 2 mph 4 mph 96% 0 in 0 W/m2
20:43 34.5 °F 33.3 °F 28.9 in Calm   2 mph 95% 0 in 0 W/m2
20:48 34.5 °F 33.3 °F 28.9 in ENE 0.9 mph 2 mph 95% 0 in 0 W/m2
20:53 34.3 °F 33.1 °F 28.9 in ENE 2 mph 2 mph 95% 0 in 0 W/m2
20:58 34.2 °F 32.9 °F 28.9 in East 0.9 mph 2 mph 95% 0 in 0 W/m2
21:03 34 °F 32.7 °F 28.9 in East 0.9 mph 2 mph 95% 0 in 0 W/m2
21:08 33.6 °F 32.4 °F 28.9 in Calm   2 mph 95% 0 in 0 W/m2
21:14 33.6 °F 32.4 °F 28.9 in ESE 2 mph 3 mph 95% 0 in 0 W/m2
21:19 33.4 °F 32.2 °F 28.9 in ESE 2 mph 3 mph 95% 0 in 0 W/m2
21:24 33.4 °F 32.2 °F 28.9 in ENE 2 mph 3 mph 95% 0 in 0 W/m2
21:29 33.4 °F 32.2 °F 28.9 in Calm   2 mph 95% 0 in 0 W/m2
21:34 33.4 °F 32.2 °F 28.9 in Calm     95% 0 in 0 W/m2
21:39 33.4 °F 32.2 °F 28.9 in Calm     95% 0 in 0 W/m2
21:44 33.4 °F 32.2 °F 28.9 in ESE 0.9 mph 2 mph 95% 0 in 0 W/m2
21:49 33.4 °F 32.2 °F 28.9 in ESE 0.9 mph 2 mph 95% 0 in 0 W/m2
21:54 33.4 °F 32.4 °F 28.9 in Calm     96% 0 in 0 W/m2
21:59 33.4 °F 32.4 °F 28.9 in Calm     96% 0 in 0 W/m2
22:04 33.3 °F 32.2 °F 28.8 in East 0.9 mph 2 mph 96% 0 in 0 W/m2
22:09 33.3 °F 32.2 °F 28.8 in Calm     96% 0 in 0 W/m2
22:14 33.4 °F 32.4 °F 28.9 in ENE 0.9 mph 3 mph 96% 0 in 0 W/m2
22:19 33.4 °F 32.4 °F 28.8 in ENE 0.9 mph 3 mph 96% 0 in 0 W/m2
22:24 33.8 °F 32.7 °F 28.8 in Calm   2 mph 96% 0 in 0 W/m2
22:29 34 °F 32.9 °F 28.8 in NE 2 mph 3 mph 96% 0.02 in 0 W/m2
22:34 34.2 °F 33.1 °F 28.8 in East 0.9 mph 2 mph 96% 0.03 in 0 W/m2
22:39 34.2 °F 33.1 °F 28.8 in East 0.9 mph 4 mph 96% 0.04 in 0 W/m2
22:44 34.3 °F 33.3 °F 28.8 in ENE 2.9 mph 3 mph 96% 0.04 in 0 W/m2
22:49 34.5 °F 33.4 °F 28.8 in NNE 2.9 mph 3 mph 96% 0.05 in 0 W/m2
22:54 34.7 °F 33.6 °F 28.8 in Calm   1 mph 96% 0.05 in 0 W/m2
22:59 34.7 °F 33.6 °F 28.8 in Calm   1 mph 96% 0.05 in 0 W/m2
23:04 34.5 °F 33.4 °F 28.8 in Calm     96% 0.06 in 0 W/m2
23:09 34.3 °F 33.3 °F 28.8 in Calm     96% 0.06 in 0 W/m2
23:14 34.3 °F 33.3 °F 28.8 in East 0.9 mph 1 mph 96% 0.06 in 0 W/m2
23:19 34.3 °F 33.3 °F 28.8 in Calm   1 mph 96% 0.06 in 0 W/m2
23:24 34.3 °F 33.3 °F 28.8 in Calm     96% 0.06 in 0 W/m2
23:29 34.3 °F 33.3 °F 28.8 in Calm     96% 0.04 in 0 W/m2
23:34 34.3 °F 33.3 °F 28.8 in Calm     96% 0.04 in 0 W/m2
23:39 34.3 °F 33.3 °F 28.8 in Calm     96% 0.03 in 0 W/m2
23:44 34.3 °F 33.3 °F 28.8 in Calm   1 mph 96% 0.03 in 0 W/m2
23:49 34.3 °F 33.3 °F 28.8 in Calm     96% 0.02 in 0 W/m2
23:54 34.3 °F 33.3 °F 28.9 in Calm   1 mph 96% 0.02 in 0 W/m2
23:59 34.5 °F 33.4 °F 28.9 in Calm     96% 0.02 in 0 W/m2
Juneau County Weather
Compliments of Weather Underground - 4 mb